Time;durP1;ratioP1;P1;durP2;ratioP2;P2;SDS_P1;SDS_P2;PMS_P1;PMS_P2;Temp;Humidity;BMP_temperature;BMP_pressure;BME280_temperature;BME280_humidity;BME280_pressure;Samples;Min_cycle;Max_cycle;Signal;HPM_P1;HPM_P2
2023/02/28 00:01:51;;;;;;;0.67;0.67;;;;;;;-0.59;68.47;100674.22;4900612;29;20040;-64
2023/02/28 00:04:20;;;;;;;4.80;2.97;;;;;;;-0.64;68.47;100680.63;4900360;29;20043;-64
2023/02/28 00:06:49;;;;;;;1.97;1.83;;;;;;;-0.62;68.63;100670.69;4900318;29;20127;-64
2023/02/28 00:09:18;;;;;;;2.33;1.50;;;;;;;-0.63;68.59;100674.84;4900525;29;20334;-64
2023/02/28 00:11:48;;;;;;;0.70;0.70;;;;;;;-0.69;68.74;100674.47;4900453;29;20521;-64
2023/02/28 00:14:17;;;;;;;1.10;1.08;;;;;;;-0.72;68.81;100676.81;4900506;29;20052;-64
2023/02/28 00:16:46;;;;;;;1.00;0.98;;;;;;;-0.63;68.81;100682.34;4900213;29;20124;-64
2023/02/28 00:19:15;;;;;;;2.97;2.78;;;;;;;-0.61;68.71;100684.94;4900081;29;20056;-64
2023/02/28 00:21:44;;;;;;;1.70;1.60;;;;;;;-0.67;68.86;100686.31;4900037;29;20104;-64
2023/02/28 00:24:13;;;;;;;1.00;1.00;;;;;;;-0.63;68.89;100686.50;4900082;29;20399;-64
2023/02/28 00:26:42;;;;;;;0.90;0.90;;;;;;;-0.61;69.05;100680.81;4899905;29;20045;-64
2023/02/28 00:29:12;;;;;;;1.75;1.60;;;;;;;-0.62;68.87;100684.06;4900189;29;20036;-64
2023/02/28 00:31:41;;;;;;;8.63;1.88;;;;;;;-0.60;68.81;100682.50;4900158;29;20123;-64
2023/02/28 00:34:12;;;;;;;0.88;0.88;;;;;;;-0.58;68.58;100686.00;4899656;29;20060;-64
2023/02/28 00:36:45;;;;;;;3.23;2.30;;;;;;;-0.61;68.88;100690.81;4899774;29;20052;-64
2023/02/28 00:39:13;;;;;;;1.52;1.42;;;;;;;-0.67;68.71;100691.31;4914857;29;20566;-64
2023/02/28 00:41:43;;;;;;;0.60;0.60;;;;;;;-0.81;69.13;100692.13;4899023;29;20053;-64
2023/02/28 00:44:13;;;;;;;10.68;2.40;;;;;;;-0.97;69.36;100693.63;4898186;29;20051;-64
2023/02/28 00:46:42;;;;;;;3.30;1.33;;;;;;;-1.07;69.78;100691.31;4899570;29;20052;-64
2023/02/28 00:49:11;;;;;;;2.53;2.35;;;;;;;-1.18;69.90;100690.69;4899430;29;20495;-64
2023/02/28 00:51:40;;;;;;;1.60;1.50;;;;;;;-1.21;70.01;100692.13;4899481;29;20040;-64
2023/02/28 00:54:09;;;;;;;0.60;0.60;;;;;;;-1.22;70.29;100695.41;4898568;29;20052;-64
2023/02/28 00:56:38;;;;;;;;;;;;;;;-1.25;70.42;100695.22;4899749;29;20052;-64
2023/02/28 00:59:06;;;;;;;3.33;3.08;;;;;;;-1.28;70.85;100700.91;4913867;29;19931;-64
2023/02/28 01:01:36;;;;;;;1.10;1.10;;;;;;;-1.24;70.77;100701.94;4898416;29;20064;-64
2023/02/28 01:04:05;;;;;;;0.63;0.63;;;;;;;-1.22;70.99;100695.41;4898118;29;20101;-64
2023/02/28 01:06:36;;;;;;;3.53;2.60;;;;;;;-1.14;71.45;100690.09;4898891;29;20559;-64
2023/02/28 01:09:07;;;;;;;0.73;0.73;;;;;;;-1.12;71.50;100687.66;4899128;29;20067;-64
2023/02/28 01:11:36;;;;;;;2.47;2.28;;;;;;;-1.08;71.65;100689.63;4899429;29;20076;-64
2023/02/28 01:14:06;;;;;;;0.40;0.40;;;;;;;-1.07;71.38;100691.31;4899658;29;20044;-64
2023/02/28 01:16:36;;;;;;;;;;;;;;;-1.03;71.62;100693.28;4898223;29;20566;-64
2023/02/28 01:19:04;;;;;;;0.77;0.65;;;;;;;-0.96;71.51;100700.38;4899015;29;19947;-64
2023/02/28 01:21:34;;;;;;;1.27;1.23;;;;;;;-0.90;71.69;100703.25;4899317;29;20044;-64
2023/02/28 01:24:04;;;;;;;1.02;0.93;;;;;;;-0.86;71.79;100706.03;4898963;29;20087;-64
2023/02/28 01:26:33;;;;;;;1.88;1.77;;;;;;;-0.81;71.62;100702.16;4898833;29;20048;-64
2023/02/28 01:29:01;;;;;;;0.40;0.40;;;;;;;-0.75;71.64;100706.69;4897953;29;20052;-64
2023/02/28 01:31:30;;;;;;;1.35;1.13;;;;;;;-0.71;71.31;100701.94;4897750;29;20044;-65
2023/02/28 01:34:01;;;;;;;;;;;;;;;-0.64;71.31;100710.69;4913546;29;20049;-64
2023/02/28 01:36:30;;;;;;;2.42;2.22;;;;;;;-0.61;71.16;100708.38;4899017;29;19923;-64
2023/02/28 01:38:59;;;;;;;2.15;1.95;;;;;;;-0.58;71.13;100711.06;4898659;29;20048;-64
2023/02/28 01:41:30;;;;;;;0.60;0.60;;;;;;;-0.55;70.98;100711.22;4897506;29;20047;-64
2023/02/28 01:44:05;;;;;;;0.98;0.98;;;;;;;-0.49;70.90;100704.09;4899237;29;20096;-64
2023/02/28 01:46:36;;;;;;;1.38;1.33;;;;;;;-0.44;70.73;100706.88;4897799;29;20494;-64
2023/02/28 01:49:12;;;;;;;1.40;1.30;;;;;;;-0.41;70.65;100710.44;4898537;29;20072;-64
2023/02/28 01:51:50;;;;;;;0.73;0.68;;;;;;;-0.38;70.49;100705.56;4899182;29;20052;-64
2023/02/28 01:54:24;;;;;;;1.25;1.17;;;;;;;-0.41;70.28;100705.41;4898567;29;20064;-64
2023/02/28 01:56:58;;;;;;;0.98;0.70;;;;;;;-0.38;70.25;100709.72;4898870;29;20095;-64
2023/02/28 01:59:33;;;;;;;0.70;0.70;;;;;;;-0.36;70.07;100703.19;4897333;29;20495;-64
2023/02/28 02:02:03;;;;;;;4.07;2.30;;;;;;;-0.34;70.21;100705.00;4897879;29;20060;-64
2023/02/28 02:04:42;;;;;;;1.10;1.05;;;;;;;-0.30;70.27;100701.88;4899525;29;20045;-64
2023/02/28 02:07:12;;;;;;;1.00;0.90;;;;;;;-0.28;70.17;100705.34;4913092;29;20101;-64
2023/02/28 02:09:45;;;;;;;0.40;0.40;;;;;;;-0.27;70.21;100704.59;4897349;29;20049;-64
2023/02/28 02:12:28;;;;;;;1.80;1.70;;;;;;;-0.29;70.38;100703.59;4897259;29;20041;-64
2023/02/28 02:15:08;;;;;;;1.27;1.17;;;;;;;-0.27;70.34;100708.72;4898709;29;20451;-64
2023/02/28 02:17:41;;;;;;;0.40;0.40;;;;;;;-0.26;70.23;100715.44;4899787;29;20059;-64
2023/02/28 02:20:34;;;;;;;1.08;0.75;;;;;;;-0.26;70.23;100708.81;4902719;29;20128;-64
2023/02/28 02:23:26;;;;;;;13.25;2.90;;;;;;;-0.26;70.01;100711.31;4902220;29;20048;-64
2023/02/28 02:26:01;;;;;;;6.60;2.67;;;;;;;-0.27;69.97;100709.59;4902141;29;20063;-64
2023/02/28 02:28:55;;;;;;;5.90;1.80;;;;;;;-0.27;70.29;100712.09;4902001;29;20583;-64
2023/02/28 02:31:53;;;;;;;0.68;0.68;;;;;;;-0.30;70.19;100713.56;4880872;29;20060;-64
2023/02/28 02:34:40;;;;;;;0.80;0.80;;;;;;;-0.27;70.22;100704.59;4901368;29;20059;-64
2023/02/28 02:37:21;;;;;;;1.05;0.82;;;;;;;-0.29;70.43;100701.09;4901945;29;20072;-64
2023/02/28 02:39:55;;;;;;;3.60;1.52;;;;;;;-0.31;70.37;100705.16;4901187;29;20056;-64
2023/02/28 02:42:29;;;;;;;0.75;0.75;;;;;;;-0.28;71.13;100702.84;4901940;29;20049;-64
2023/02/28 02:45:06;;;;;;;0.82;0.82;;;;;;;-0.24;70.75;100699.72;4902114;29;20048;-64
2023/02/28 02:47:36;;;;;;;1.00;1.00;;;;;;;-0.24;70.64;100699.72;4901608;29;20048;-64
2023/02/28 02:50:14;;;;;;;0.68;0.65;;;;;;;-0.21;70.57;100699.91;4901907;29;20049;-64
2023/02/28 02:52:49;;;;;;;0.50;0.50;;;;;;;-0.19;70.35;100700.84;4901676;29;20058;-64
2023/02/28 02:55:21;;;;;;;0.68;0.68;;;;;;;-0.18;70.60;100710.13;4916224;29;20147;-63
2023/02/28 02:57:54;;;;;;;0.38;0.38;;;;;;;-0.17;70.50;100701.81;4900455;29;20057;-64
2023/02/28 03:00:30;;;;;;;1.02;0.98;;;;;;;-0.16;70.60;100708.56;4900630;29;20044;-64
2023/02/28 03:03:00;;;;;;;0.77;0.77;;;;;;;-0.14;70.43;100709.50;4901781;29;20049;-64
2023/02/28 03:05:35;;;;;;;2.10;1.75;;;;;;;-0.14;70.51;100711.16;4900623;29;20057;-64
2023/02/28 03:08:06;;;;;;;1.33;1.25;;;;;;;-0.18;70.58;100705.09;4900312;29;20045;-64
2023/02/28 03:10:39;;;;;;;0.68;0.68;;;;;;;-0.13;70.53;100698.72;4900336;29;20406;-64
2023/02/28 03:13:31;;;;;;;0.70;0.70;;;;;;;-0.10;70.48;100708.91;4901597;29;20467;-64
2023/02/28 03:16:25;;;;;;;1.10;1.08;;;;;;;-0.13;70.96;100708.75;4916101;29;20049;-64
2023/02/28 03:19:04;;;;;;;1.98;1.88;;;;;;;-0.14;70.81;100706.13;4901200;29;20048;-64
2023/02/28 03:21:41;;;;;;;1.35;1.35;;;;;;;-0.07;70.82;100709.09;4899928;29;20056;-64
2023/02/28 03:24:17;;;;;;;0.60;0.60;;;;;;;-0.06;71.31;100705.81;4915968;29;20085;-64
2023/02/28 03:26:54;;;;;;;0.93;0.93;;;;;;;-0.03;71.08;100706.00;4901161;29;20507;-64
2023/02/28 03:29:28;;;;;;;1.05;1.02;;;;;;;-0.03;71.18;100707.63;4900753;29;20087;-64
2023/02/28 03:32:05;;;;;;;0.70;0.70;;;;;;;0.00;71.14;100708.66;4900961;29;20056;-64
2023/02/28 03:34:37;;;;;;;1.27;1.17;;;;;;;0.03;71.15;100709.63;4900673;29;20064;-64
2023/02/28 03:37:13;;;;;;;0.98;0.95;;;;;;;0.08;70.91;100708.22;4900897;29;20515;-64
2023/02/28 03:39:45;;;;;;;0.77;0.77;;;;;;;0.07;70.86;100711.53;4901463;29;20056;-64
2023/02/28 03:42:19;;;;;;;0.65;0.65;;;;;;;0.08;70.66;100708.22;4901014;29;20123;-64
2023/02/28 03:44:55;;;;;;;0.40;0.40;;;;;;;0.05;70.52;100708.09;4900944;29;20049;-64
2023/02/28 03:47:29;;;;;;;0.30;0.30;;;;;;;0.02;70.58;100713.78;4899825;29;20063;-64
2023/02/28 03:50:02;;;;;;;1.10;1.10;;;;;;;-0.02;70.68;100712.72;4900899;29;20131;-64
2023/02/28 03:52:37;;;;;;;1.15;1.00;;;;;;;-0.06;70.43;100715.84;4900842;29;20510;-64
2023/02/28 03:55:11;;;;;;;3.40;1.50;;;;;;;-0.04;70.54;100719.31;4900595;29;20076;-64
2023/02/28 03:57:44;;;;;;;2.25;1.80;;;;;;;-0.06;70.61;100720.00;4900620;29;20087;-64
2023/02/28 04:00:18;;;;;;;1.27;1.17;;;;;;;-0.11;70.64;100722.25;4900777;29;20415;-64
2023/02/28 04:02:52;;;;;;;14.65;2.45;;;;;;;-0.17;70.55;100724.38;4900635;29;20059;-63
2023/02/28 04:05:22;;;;;;;1.33;1.23;;;;;;;-0.29;70.59;100731.19;4900682;29;20052;-64
2023/02/28 04:07:52;;;;;;;0.68;0.68;;;;;;;-0.47;70.71;100730.13;4900326;29;20112;-64
2023/02/28 04:10:21;;;;;;;1.30;1.05;;;;;;;-0.51;71.27;100730.72;4900490;29;20044;-64
2023/02/28 04:12:50;;;;;;;0.45;0.45;;;;;;;-0.62;71.27;100738.38;4900113;29;20041;-63
2023/02/28 04:15:22;;;;;;;2.63;2.33;;;;;;;-0.79;71.33;100730.69;4900408;29;20487;-64
2023/02/28 04:17:51;;;;;;;2.10;2.00;;;;;;;-0.80;71.64;100730.59;4900188;29;20053;-64
2023/02/28 04:20:20;;;;;;;0.93;0.93;;;;;;;-0.84;71.84;100727.03;4900420;29;20051;-64
2023/02/28 04:22:49;;;;;;;0.80;0.80;;;;;;;-0.90;71.80;100735.81;4900305;29;20294;-64
2023/02/28 04:25:19;;;;;;;7.30;3.90;;;;;;;-0.99;72.17;100732.75;4899941;29;20052;-64
2023/02/28 04:27:50;;;;;;;1.45;1.33;;;;;;;-1.14;71.94;100744.31;4900274;29;20487;-64
2023/02/28 04:30:19;;;;;;;0.33;0.33;;;;;;;-1.25;72.71;100742.78;4899788;29;20056;-64
2023/02/28 04:32:47;;;;;;;2.53;1.60;;;;;;;-1.29;72.46;100738.34;4899832;29;20156;-64
2023/02/28 04:35:16;;;;;;;0.50;0.50;;;;;;;-1.30;72.96;100747.50;4899274;29;20303;-64
2023/02/28 04:37:45;;;;;;;2.60;2.40;;;;;;;-1.26;72.96;100748.56;4899604;29;20495;-64
2023/02/28 04:40:14;;;;;;;1.13;1.03;;;;;;;-1.25;73.25;100750.31;4899097;29;20048;-64
2023/02/28 04:42:44;;;;;;;0.57;0.57;;;;;;;-1.27;73.14;100752.69;4899640;29;20112;-64
2023/02/28 04:45:13;;;;;;;2.10;1.90;;;;;;;-1.34;73.41;100752.22;4899602;29;20048;-64
2023/02/28 04:47:42;;;;;;;1.60;1.50;;;;;;;-1.43;73.37;100750.00;4900116;29;20048;-64
2023/02/28 04:50:11;;;;;;;4.23;2.87;;;;;;;-1.41;73.79;100748.44;4899437;29;20296;-64
2023/02/28 04:52:40;;;;;;;0.80;0.80;;;;;;;-1.38;73.55;100754.53;4899517;29;20048;-64
2023/02/28 04:55:10;;;;;;;1.90;1.80;;;;;;;-1.38;73.91;100744.53;4899438;29;20559;-64
2023/02/28 04:57:39;;;;;;;5.22;4.05;;;;;;;-1.35;74.10;100731.34;4899347;29;20326;-64
2023/02/28 05:00:11;;;;;;;1.10;1.03;;;;;;;-1.28;74.39;100747.59;4899316;29;20131;-64
2023/02/28 05:02:40;;;;;;;3.53;3.25;;;;;;;-1.24;74.37;100742.00;4899682;29;20073;-64
2023/02/28 05:05:09;;;;;;;1.17;1.07;;;;;;;-1.23;74.36;100746.25;4899274;29;20080;-64
2023/02/28 05:07:38;;;;;;;2.30;2.13;;;;;;;-1.18;74.32;100740.78;4899506;29;20048;-64
2023/02/28 05:10:07;;;;;;;0.85;0.85;;;;;;;-1.12;74.76;100737.75;4899091;29;20045;-64
2023/02/28 05:12:36;;;;;;;2.22;2.05;;;;;;;-1.04;74.49;100741.63;4899401;29;20040;-64
2023/02/28 05:15:05;;;;;;;1.10;1.00;;;;;;;-0.96;74.72;100740.47;4899168;29;20052;-64
2023/02/28 05:17:35;;;;;;;;;;;;;;;-0.93;74.62;100740.63;4899288;29;20527;-64
2023/02/28 05:20:05;;;;;;;1.85;1.58;;;;;;;-0.90;74.79;100740.81;4898911;29;19998;-64
2023/02/28 05:22:44;;;;;;;1.95;1.27;;;;;;;-0.91;74.78;100744.97;4899398;29;20041;-64
2023/02/28 05:25:17;;;;;;;3.10;2.50;;;;;;;-0.89;75.00;100742.56;4898904;29;20135;-64
2023/02/28 05:27:47;;;;;;;3.20;2.95;;;;;;;-0.82;74.89;100739.66;4899063;29;20214;-64
2023/02/28 05:30:16;;;;;;;1.83;1.73;;;;;;;-0.77;74.86;100736.63;4898784;29;20044;-64
2023/02/28 05:32:51;;;;;;;5.18;4.63;;;;;;;-0.70;75.00;100750.44;4899097;29;20052;-64
2023/02/28 05:35:20;;;;;;;2.88;2.63;;;;;;;-0.71;74.82;100743.69;4898949;29;20100;-64
2023/02/28 05:37:49;;;;;;;3.00;2.80;;;;;;;-0.69;74.69;100759.66;4898992;29;20096;-64
2023/02/28 05:40:20;;;;;;;2.27;1.90;;;;;;;-0.68;75.15;100757.28;4899002;29;20071;-64
2023/02/28 05:42:51;;;;;;;2.00;1.88;;;;;;;-0.60;74.97;100771.91;4898728;29;20055;-64
2023/02/28 05:45:20;;;;;;;2.90;2.65;;;;;;;-0.57;75.07;100767.94;4899211;29;20049;-64
2023/02/28 05:47:54;;;;;;;0.67;0.67;;;;;;;-0.51;74.77;100770.81;4898577;29;20124;-64
2023/02/28 05:50:23;;;;;;;3.33;3.08;;;;;;;-0.48;74.62;100773.50;4898841;29;20443;-64
2023/02/28 05:52:52;;;;;;;1.55;1.48;;;;;;;-0.43;74.45;100781.31;4898511;29;20143;-64
2023/02/28 05:55:21;;;;;;;15.85;3.83;;;;;;;-0.41;73.82;100769.75;4898457;29;20055;-64
2023/02/28 05:57:49;;;;;;;3.70;2.50;;;;;;;-0.44;73.92;100780.44;4898931;29;20380;-64
2023/02/28 06:00:19;;;;;;;0.50;0.50;;;;;;;-0.38;73.85;100780.78;4898805;29;20467;-64
2023/02/28 06:02:48;;;;;;;;;;;;;;;-0.35;73.96;100781.00;4897913;29;20315;-64
2023/02/28 06:05:19;;;;;;;0.73;0.73;;;;;;;-0.37;73.95;100777.53;4898747;29;19963;-64
2023/02/28 06:07:48;;;;;;;0.68;0.63;;;;;;;-0.36;73.86;100784.25;4898895;29;20052;-64
2023/02/28 06:10:17;;;;;;;0.77;0.77;;;;;;;-0.37;73.74;100787.56;4898379;29;20106;-64
2023/02/28 06:12:46;;;;;;;1.90;1.80;;;;;;;-0.34;74.07;100790.25;4898308;29;20078;-64
2023/02/28 06:15:16;;;;;;;1.05;1.05;;;;;;;-0.22;73.96;100793.50;4898336;29;20127;-63
2023/02/28 06:17:45;;;;;;;0.93;0.93;;;;;;;-0.16;73.82;100793.84;4898527;29;20571;-64
2023/02/28 06:20:14;;;;;;;1.33;1.23;;;;;;;-0.14;73.61;100797.31;4898225;29;20045;-64
2023/02/28 06:22:44;;;;;;;1.58;1.48;;;;;;;-0.10;73.50;100798.38;4898457;29;20084;-63
2023/02/28 06:25:13;;;;;;;57.17;4.10;;;;;;;-0.07;73.67;100801.91;4898482;29;20044;-63
2023/02/28 06:27:42;;;;;;;2.53;2.33;;;;;;;-0.11;73.60;100802.53;4898489;29;20454;-63
2023/02/28 06:30:13;;;;;;;1.20;1.10;;;;;;;-0.08;73.65;100805.22;4898394;29;20040;-64
2023/02/28 06:32:42;;;;;;;1.23;1.20;;;;;;;-0.09;73.71;100811.00;4898757;29;20396;-63
2023/02/28 06:35:11;;;;;;;0.80;0.80;;;;;;;-0.02;73.88;100805.56;4898213;29;20503;-63
2023/02/28 06:37:40;;;;;;;0.53;0.53;;;;;;;0.00;73.63;100809.03;4898180;29;20136;-64
2023/02/28 06:40:12;;;;;;;2.40;1.83;;;;;;;0.07;73.59;100806.91;4898241;29;20041;-63
2023/02/28 06:42:43;;;;;;;1.98;1.88;;;;;;;0.13;73.46;100807.25;4898044;29;20068;-63
2023/02/28 06:45:12;;;;;;;1.43;1.33;;;;;;;0.19;73.38;100807.63;4898087;29;20051;-63
2023/02/28 06:47:41;;;;;;;;;;;;;;;0.24;73.05;100806.25;4898383;29;20287;-63
2023/02/28 06:50:13;;;;;;;1.42;1.23;;;;;;;0.27;73.11;100808.91;4898370;29;19928;-63
2023/02/28 06:52:41;;;;;;;0.60;0.60;;;;;;;0.23;72.75;100801.97;4898029;29;20499;-63
2023/02/28 06:55:12;;;;;;;4.18;3.55;;;;;;;0.23;72.18;100804.50;4898309;29;20115;-63
2023/02/28 06:57:41;;;;;;;1.08;1.05;;;;;;;0.33;72.15;100811.78;4898277;29;20086;-63
2023/02/28 07:00:11;;;;;;;2.33;2.13;;;;;;;0.50;71.87;100813.63;4897941;29;20045;-63
2023/02/28 07:02:39;;;;;;;0.30;0.30;;;;;;;0.56;71.19;100808.94;4898238;29;20060;-63
2023/02/28 07:05:09;;;;;;;1.07;1.07;;;;;;;0.50;70.68;100806.09;4901460;29;20123;-63
2023/02/28 07:07:43;;;;;;;0.80;0.80;;;;;;;0.48;70.43;100808.50;4901342;29;20521;-63
2023/02/28 07:10:16;;;;;;;0.65;0.65;;;;;;;0.52;69.99;100809.53;4901357;29;20131;-63
2023/02/28 07:12:48;;;;;;;4.93;2.92;;;;;;;0.61;69.83;100810.06;4901137;29;20083;-63
2023/02/28 07:15:17;;;;;;;1.50;1.40;;;;;;;0.60;69.64;100806.69;4901530;29;20108;-63
2023/02/28 07:17:46;;;;;;;0.82;0.82;;;;;;;0.54;69.63;100807.97;4901179;29;20112;-63
2023/02/28 07:20:15;;;;;;;1.88;1.73;;;;;;;0.62;68.59;100806.78;4901155;29;20096;-63
2023/02/28 07:22:44;;;;;;;4.32;1.10;;;;;;;0.66;68.43;100808.69;4901316;29;20068;-63
2023/02/28 07:25:14;;;;;;;0.30;0.30;;;;;;;0.65;68.23;100806.94;4901120;29;20041;-63
2023/02/28 07:27:43;;;;;;;0.50;0.50;;;;;;;0.71;68.29;100812.31;4901321;29;20053;-63
2023/02/28 07:30:14;;;;;;;0.60;0.60;;;;;;;0.81;68.00;100817.09;4906252;29;20115;-63
2023/02/28 07:32:43;;;;;;;1.17;1.17;;;;;;;0.84;67.26;100819.75;4919961;29;20477;-63
2023/02/28 07:35:15;;;;;;;1.02;1.00;;;;;;;0.88;67.10;100826.69;4917673;29;20067;-63
2023/02/28 07:37:43;;;;;;;2.58;2.38;;;;;;;1.02;67.36;100822.41;4919975;29;20048;-63
2023/02/28 07:40:15;;;;;;;1.63;1.30;;;;;;;1.03;67.49;100806.56;4919623;29;20048;-63
2023/02/28 07:42:44;;;;;;;2.75;1.88;;;;;;;1.12;67.30;100818.00;4919991;29;20080;-63
2023/02/28 07:45:19;;;;;;;3.03;1.45;;;;;;;1.09;67.11;100816.94;4918430;29;20056;-63
2023/02/28 07:47:48;;;;;;;2.25;2.10;;;;;;;1.09;67.26;100822.84;4909963;29;20491;-63
2023/02/28 07:50:17;;;;;;;2.87;2.50;;;;;;;1.09;67.04;100827.88;4919380;29;20550;-63
2023/02/28 07:52:46;;;;;;;0.70;0.70;;;;;;;1.12;66.91;100818.00;4919526;29;20044;-63
2023/02/28 07:55:16;;;;;;;4.13;1.47;;;;;;;1.06;66.88;100817.66;4919410;29;20044;-63
2023/02/28 07:57:45;;;;;;;1.40;1.30;;;;;;;1.06;66.97;100817.66;4919600;29;20471;-63
2023/02/28 08:00:15;;;;;;;2.60;1.48;;;;;;;1.05;67.17;100823.47;4920065;29;20056;-64
2023/02/28 08:02:44;;;;;;;5.97;2.80;;;;;;;1.18;67.23;100823.34;4919226;29;20047;-63
2023/02/28 08:05:12;;;;;;;1.50;1.40;;;;;;;1.23;67.17;100832.00;4919140;29;20044;-63
2023/02/28 08:07:41;;;;;;;0.50;0.50;;;;;;;1.34;67.43;100830.09;4919412;29;20398;-63
2023/02/28 08:10:11;;;;;;;0.73;0.73;;;;;;;1.38;67.64;100831.09;4919041;29;20091;-63
2023/02/28 08:12:41;;;;;;;;;;;;;;;1.43;66.82;100839.75;4919474;29;20126;-64
2023/02/28 08:15:10;;;;;;;0.65;0.65;;;;;;;1.42;66.87;100838.06;4918259;29;20413;-63
2023/02/28 08:17:39;;;;;;;3.42;2.42;;;;;;;1.46;66.39;100834.91;4914969;29;20115;-63
2023/02/28 08:20:10;;;;;;;0.87;0.87;;;;;;;1.51;65.96;100829.34;4918908;29;20070;-63
2023/02/28 08:22:39;;;;;;;2.63;1.35;;;;;;;1.45;65.25;100838.19;4918897;29;20055;-63
2023/02/28 08:25:09;;;;;;;1.47;1.37;;;;;;;1.46;64.76;100824.84;4919320;29;20048;-63
2023/02/28 08:27:37;;;;;;;;;;;;;;;1.55;64.88;100831.22;4919133;29;20314;-63
2023/02/28 08:30:09;;;;;;;3.05;1.55;;;;;;;1.66;64.73;100845.25;4918683;29;20030;-63
2023/02/28 08:32:38;;;;;;;1.98;1.88;;;;;;;1.79;64.39;100841.72;4918928;29;20443;-63
2023/02/28 08:35:08;;;;;;;0.35;0.35;;;;;;;1.73;64.32;100836.34;4910104;29;20108;-63
2023/02/28 08:37:38;;;;;;;0.70;0.70;;;;;;;1.80;64.44;100838.44;4893068;29;20053;-63
2023/02/28 08:40:08;;;;;;;0.60;0.60;;;;;;;1.78;64.30;100839.97;4880992;29;20104;-63
2023/02/28 08:42:37;;;;;;;0.82;0.80;;;;;;;1.82;64.18;100836.84;4894418;29;20410;-64
2023/02/28 08:45:08;;;;;;;3.00;2.28;;;;;;;1.81;63.07;100841.03;4896312;29;20132;-64
2023/02/28 08:47:37;;;;;;;2.92;2.60;;;;;;;1.70;62.78;100841.25;4897173;29;20037;-63
2023/02/28 08:50:06;;;;;;;1.08;0.98;;;;;;;1.58;62.53;100836.44;4898948;29;20088;-63
2023/02/28 08:52:36;;;;;;;3.22;1.75;;;;;;;1.72;62.53;100839.66;4908730;29;20495;-63
2023/02/28 08:55:04;;;;;;;0.67;0.67;;;;;;;1.79;62.38;100835.06;4918190;29;20123;-63
2023/02/28 08:57:33;;;;;;;1.45;1.35;;;;;;;1.93;62.41;100840.78;4911011;29;20060;-63
2023/02/28 09:00:04;;;;;;;0.30;0.30;;;;;;;2.00;62.52;100833.63;4897078;29;20547;-63
2023/02/28 09:02:35;;;;;;;3.38;1.83;;;;;;;1.95;62.06;100809.00;4896688;29;20475;-63
2023/02/28 09:05:05;;;;;;;0.30;0.30;;;;;;;2.09;62.36;100838.25;4899091;29;20048;-64
2023/02/28 09:07:34;;;;;;;2.08;1.88;;;;;;;2.16;61.44;100832.75;4894893;29;20048;-63
2023/02/28 09:10:02;;;;;;;1.55;1.48;;;;;;;2.14;61.73;100831.81;4886755;29;20041;-63
2023/02/28 09:12:36;;;;;;;1.40;0.93;;;;;;;2.22;61.97;100830.56;4880364;29;20117;-63
2023/02/28 09:15:06;;;;;;;0.60;0.60;;;;;;;2.26;61.49;100837.47;4880462;29;20053;-63
2023/02/28 09:17:36;;;;;;;3.83;2.17;;;;;;;2.26;61.73;100837.47;4880258;29;20049;-63
2023/02/28 09:20:06;;;;;;;1.38;1.27;;;;;;;2.25;61.12;100834.91;4880383;29;20057;-63
2023/02/28 09:22:35;;;;;;;2.63;2.20;;;;;;;2.28;60.38;100828.34;4880601;29;20468;-63
2023/02/28 09:25:04;;;;;;;0.85;0.85;;;;;;;2.27;60.46;100829.16;4880202;29;20128;-63
2023/02/28 09:27:33;;;;;;;1.20;1.10;;;;;;;2.32;59.79;100832.78;4880088;29;20120;-63
2023/02/28 09:30:01;;;;;;;1.00;0.93;;;;;;;2.47;59.62;100833.50;4890170;29;20100;-63
2023/02/28 09:32:30;;;;;;;1.70;1.60;;;;;;;2.54;58.91;100838.06;4889682;29;20124;-64
2023/02/28 09:35:01;;;;;;;1.85;1.55;;;;;;;2.75;59.13;100842.44;4887257;29;20141;-63
2023/02/28 09:37:31;;;;;;;1.33;1.23;;;;;;;2.86;57.83;100843.81;4889843;29;20044;-63
2023/02/28 09:40:00;;;;;;;1.08;0.98;;;;;;;2.93;57.48;100846.72;4892022;29;20229;-63
2023/02/28 09:42:33;;;;;;;0.30;0.30;;;;;;;3.00;57.28;100842.84;4897479;29;20100;-63
2023/02/28 09:45:08;;;;;;;10.98;2.55;;;;;;;2.88;57.58;100844.78;4898928;29;20135;-63
2023/02/28 09:47:42;;;;;;;1.85;1.38;;;;;;;2.87;57.01;100850.59;4898604;29;20049;-63
2023/02/28 09:50:24;;;;;;;1.48;1.38;;;;;;;2.99;57.56;100847.03;4898591;29;20104;-63
2023/02/28 09:52:55;;;;;;;0.65;0.63;;;;;;;2.93;57.03;100851.75;4898661;29;20047;-63
2023/02/28 09:55:31;;;;;;;0.60;0.60;;;;;;;2.88;56.70;100842.25;4900449;29;20486;-63
2023/02/28 09:58:20;;;;;;;0.70;0.70;;;;;;;2.96;57.29;100843.47;4898088;29;20139;-63
2023/02/28 10:00:53;;;;;;;;;;;;;;;3.06;56.65;100848.16;4899623;29;20391;-63
2023/02/28 10:03:30;;;;;;;0.35;0.35;;;;;;;3.11;57.32;100841.69;4898451;29;20358;-63
2023/02/28 10:06:08;;;;;;;0.40;0.40;;;;;;;3.10;56.52;100834.91;4898465;29;20113;-63
2023/02/28 10:08:44;;;;;;;1.65;1.55;;;;;;;3.16;55.87;100840.25;4898438;29;20567;-63
2023/02/28 10:11:17;;;;;;;0.77;0.77;;;;;;;3.29;56.32;100845.06;4898716;29;20544;-63
2023/02/28 10:13:55;;;;;;;0.60;0.60;;;;;;;3.48;56.85;100847.66;4898296;29;20044;-63
2023/02/28 10:16:32;;;;;;;2.70;1.75;;;;;;;3.63;56.15;100835.72;4898825;29;20047;-63
2023/02/28 10:19:06;;;;;;;1.02;0.77;;;;;;;3.65;54.89;100835.78;4898357;29;20059;-63
2023/02/28 10:21:42;;;;;;;0.50;0.50;;;;;;;3.65;55.03;100830.75;4898231;29;20059;-63
2023/02/28 10:24:24;;;;;;;1.10;1.05;;;;;;;3.59;54.49;100826.31;4898220;29;20061;-63
2023/02/28 10:26:58;;;;;;;1.40;1.30;;;;;;;3.59;53.98;100833.00;4898572;29;20225;-63
2023/02/28 10:29:27;;;;;;;2.15;1.35;;;;;;;3.62;53.93;100823.94;4898272;29;20056;-63
2023/02/28 10:31:57;;;;;;;0.65;0.65;;;;;;;3.87;53.28;100826.72;4898293;29;20040;-63
2023/02/28 10:34:26;;;;;;;1.38;1.15;;;;;;;4.20;54.10;100827.31;4897742;29;20056;-63
2023/02/28 10:37:07;;;;;;;0.52;0.52;;;;;;;4.36;54.03;100826.31;4897853;29;20144;-63
2023/02/28 10:39:42;;;;;;;0.68;0.68;;;;;;;4.36;52.56;100819.63;4891135;29;20083;-64
2023/02/28 10:42:25;;;;;;;3.90;2.17;;;;;;;4.56;53.07;100812.84;4906793;29;20056;-64
2023/02/28 10:45:13;;;;;;;1.33;1.23;;;;;;;4.72;52.89;100812.69;4883142;29;20041;-63
2023/02/28 10:47:52;;;;;;;0.63;0.63;;;;;;;4.54;52.65;100805.19;4883203;29;20055;-63
2023/02/28 10:50:33;;;;;;;2.40;1.00;;;;;;;4.45;51.36;100809.03;4883000;29;20071;-63
2023/02/28 10:53:22;;;;;;;;;;;;;;;4.49;51.41;100800.75;4883224;29;20547;-63
2023/02/28 10:56:00;;;;;;;;;;;;;;;4.68;51.37;100803.22;4884727;29;19968;-63
2023/02/28 10:58:32;;;;;;;0.90;0.90;;;;;;;4.99;51.00;100791.00;4882919;29;19923;-63
2023/02/28 11:01:01;;;;;;;0.85;0.85;;;;;;;5.12;50.80;100788.16;4882771;29;20121;-63
2023/02/28 11:03:33;;;;;;;2.03;1.65;;;;;;;5.57;50.93;100785.63;4884864;29;20131;-64
2023/02/28 11:06:08;;;;;;;0.30;0.30;;;;;;;5.84;50.64;100786.63;4890741;29;20045;-64
2023/02/28 11:08:45;;;;;;;0.50;0.50;;;;;;;5.80;49.94;100782.28;4888803;29;20044;-64
2023/02/28 11:11:17;;;;;;;0.52;0.52;;;;;;;5.43;49.64;100786.00;4901603;29;20116;-63
2023/02/28 11:13:49;;;;;;;1.30;1.20;;;;;;;5.57;49.19;100783.09;4912346;29;20048;-64
2023/02/28 11:16:18;;;;;;;0.65;0.50;;;;;;;5.38;49.29;100777.34;4920120;29;20058;-63
2023/02/28 11:18:51;;;;;;;2.08;1.88;;;;;;;5.45;48.85;100775.06;4920284;29;20051;-63
2023/02/28 11:21:24;;;;;;;0.40;0.40;;;;;;;5.38;47.92;100741.91;4920346;29;20184;-64
2023/02/28 11:24:01;;;;;;;4.00;1.55;;;;;;;5.67;47.87;100767.44;4917711;29;20044;-64
2023/02/28 11:26:44;;;;;;;4.88;2.15;;;;;;;5.73;47.15;100755.00;4891332;29;20076;-64
2023/02/28 11:29:20;;;;;;;1.85;1.05;;;;;;;5.82;47.39;100755.31;4901033;29;20077;-64
2023/02/28 11:32:11;;;;;;;0.60;0.60;;;;;;;5.86;47.05;100752.13;4901184;29;20068;-64
2023/02/28 11:34:41;;;;;;;0.70;0.70;;;;;;;5.91;46.83;100741.34;4900670;29;20057;-64
2023/02/28 11:37:15;;;;;;;1.48;1.38;;;;;;;5.97;46.54;100745.78;4900911;29;20061;-63
2023/02/28 11:39:45;;;;;;;0.77;0.77;;;;;;;6.02;46.13;100744.25;4900712;29;20127;-63
2023/02/28 11:42:44;;;;;;;0.68;0.68;;;;;;;6.14;45.81;100734.53;4901288;29;20119;-63
2023/02/28 11:45:29;;;;;;;0.50;0.50;;;;;;;6.21;45.35;100726.34;4900979;29;20048;-63
2023/02/28 11:48:06;;;;;;;0.73;0.73;;;;;;;6.69;45.63;100722.81;4901325;29;20476;-63
2023/02/28 11:50:52;;;;;;;0.40;0.40;;;;;;;6.72;45.36;100719.50;4914325;29;20052;-64
2023/02/28 11:53:36;;;;;;;0.57;0.57;;;;;;;6.52;45.05;100718.06;4900539;29;20051;-63
2023/02/28 11:56:12;;;;;;;0.80;0.80;;;;;;;6.51;45.26;100721.38;4900406;29;20127;-63